PWSweather.com
Personal Weather Stations
Station Observations
K4FB1
Clubhouse Heritage, Lakeland, FL 33812

Clubhouse HeritageLakeland, FL 33812

Lat: 27.969224, Lon: -81.897769

Elevation: 145

Station Type: Davis Vantage Pro2

http://www.ClubhouseWX.com

High Low Average
Temperature 90.8°F32.7°C 71.9°F22.2°C 78.0°F25.6°C
Dew Point 79.1°F26.2°C 71.0°F21.7°C 74.1°F23.4°C
Winds 10.0 mph 16.1 kmh Calm Calm 3.0 mph SE4.8 kmh SE
Wind Gusts 19.0 mph30.6 kmh 1.0 mph1.6 kmh 7.0 mph11.3 kmh
Humidity 98% 59% 89%
Pressure 30.04 in1017.3 mb 29.98 in1015.2 mb -
Precipitation 0.03 in0.8 mm - -
Hour Temp Dew Point Humidity Winds Wind Gusts Pressure Precip Precip Rate Daily Precip Total
12:00 AM 72.4°F22.4°C 71.5°F21.9°C 97% Calm Calm 1.0 mph1.6 kmh 30.02 in1016.6 mb 0.00 in0.0 mm 0.00 in0.0 mm 0.00 in0.0 mm
12:05 AM 72.4°F22.4°C 71.5°F21.9°C 97% Calm Calm 1.0 mph1.6 kmh 30.01 in1016.3 mb 0.00 in0.0 mm 0.00 in0.0 mm 0.00 in0.0 mm
12:10 AM 72.3°F22.4°C 71.4°F21.9°C 97% Calm Calm 1.0 mph1.6 kmh 30.01 in1016.3 mb 0.00 in0.0 mm 0.00 in0.0 mm 0.00 in0.0 mm
12:15 AM 72.2°F22.3°C 71.3°F21.8°C 97% Calm Calm 1.0 mph1.6 kmh 30.01 in1016.3 mb 0.00 in0.0 mm 0.00 in0.0 mm 0.00 in0.0 mm
12:20 AM 72.1°F22.3°C 71.2°F21.8°C 97% Calm Calm 1.0 mph1.6 kmh 30.01 in1016.3 mb 0.00 in0.0 mm 0.00 in0.0 mm 0.00 in0.0 mm
12:25 AM 72.1°F22.3°C 71.2°F21.8°C 97% Calm Calm 1.0 mph1.6 kmh 30.01 in1016.3 mb 0.00 in0.0 mm 0.00 in0.0 mm 0.00 in0.0 mm
12:30 AM 72.1°F22.3°C 71.2°F21.8°C 97% Calm Calm 2.0 mph3.2 kmh 30.01 in1016.3 mb 0.00 in0.0 mm 0.00 in0.0 mm 0.00 in0.0 mm
12:35 AM 72.2°F22.3°C 71.6°F22.0°C 98% 1.0 mph SE1.6 kmh SE 2.0 mph3.2 kmh 30.01 in1016.3 mb 0.00 in0.0 mm 0.00 in0.0 mm 0.00 in0.0 mm
12:40 AM 72.4°F22.4°C 71.8°F22.1°C 98% 1.0 mph SE1.6 kmh SE 2.0 mph3.2 kmh 30.01 in1016.3 mb 0.00 in0.0 mm 0.00 in0.0 mm 0.00 in0.0 mm
12:45 AM 72.4°F22.4°C 71.8°F22.1°C 98% 1.0 mph SE1.6 kmh SE 2.0 mph3.2 kmh 30.01 in1016.3 mb 0.00 in0.0 mm 0.00 in0.0 mm 0.00 in0.0 mm
12:50 AM 72.4°F22.4°C 71.8°F22.1°C 98% 1.0 mph SE1.6 kmh SE 3.0 mph4.8 kmh 30.01 in1016.3 mb 0.00 in0.0 mm 0.00 in0.0 mm 0.00 in0.0 mm
12:55 AM 72.5°F22.5°C 71.9°F22.2°C 98% 1.0 mph SE1.6 kmh SE 3.0 mph4.8 kmh 30.01 in1016.3 mb 0.00 in0.0 mm 0.00 in0.0 mm 0.00 in0.0 mm
01:00 AM 72.6°F22.6°C 72.0°F22.2°C 98% 1.0 mph SE1.6 kmh SE 3.0 mph4.8 kmh 30.01 in1016.3 mb 0.00 in0.0 mm 0.00 in0.0 mm 0.00 in0.0 mm
01:05 AM 72.6°F22.6°C 72.0°F22.2°C 98% Calm Calm 2.0 mph3.2 kmh 30.00 in1015.9 mb 0.00 in0.0 mm 0.00 in0.0 mm 0.00 in0.0 mm
01:10 AM 72.7°F22.6°C 72.1°F22.3°C 98% 1.0 mph SE1.6 kmh SE 2.0 mph3.2 kmh 30.00 in1015.9 mb 0.00 in0.0 mm 0.00 in0.0 mm 0.00 in0.0 mm
01:15 AM 72.8°F22.7°C 72.2°F22.3°C 98% 1.0 mph SE1.6 kmh SE 3.0 mph4.8 kmh 30.01 in1016.3 mb 0.00 in0.0 mm 0.00 in0.0 mm 0.00 in0.0 mm
01:20 AM 72.9°F22.7°C 72.3°F22.4°C 98% 1.0 mph SE1.6 kmh SE 3.0 mph4.8 kmh 30.01 in1016.3 mb 0.00 in0.0 mm 0.00 in0.0 mm 0.00 in0.0 mm
01:25 AM 72.9°F22.7°C 72.3°F22.4°C 98% 1.0 mph SE1.6 kmh SE 3.0 mph4.8 kmh 30.01 in1016.3 mb 0.00 in0.0 mm 0.00 in0.0 mm 0.00 in0.0 mm
01:30 AM 72.8°F22.7°C 72.2°F22.3°C 98% Calm Calm 2.0 mph3.2 kmh 30.01 in1016.3 mb 0.00 in0.0 mm 0.00 in0.0 mm 0.00 in0.0 mm
01:35 AM 72.8°F22.7°C 72.2°F22.3°C 98% Calm Calm 3.0 mph4.8 kmh 30.01 in1016.3 mb 0.00 in0.0 mm 0.00 in0.0 mm 0.00 in0.0 mm
01:40 AM 72.9°F22.7°C 72.3°F22.4°C 98% Calm Calm 3.0 mph4.8 kmh 30.01 in1016.3 mb 0.00 in0.0 mm 0.00 in0.0 mm 0.00 in0.0 mm
01:45 AM 72.8°F22.7°C 72.2°F22.3°C 98% Calm Calm 1.0 mph1.6 kmh 30.01 in1016.3 mb 0.00 in0.0 mm 0.00 in0.0 mm 0.00 in0.0 mm
01:50 AM 72.8°F22.7°C 72.2°F22.3°C 98% Calm Calm 1.0 mph1.6 kmh 30.01 in1016.3 mb 0.00 in0.0 mm 0.00 in0.0 mm 0.00 in0.0 mm
01:55 AM 72.8°F22.7°C 72.2°F22.3°C 98% Calm Calm 1.0 mph1.6 kmh 30.01 in1016.3 mb 0.00 in0.0 mm 0.00 in0.0 mm 0.00 in0.0 mm
02:00 AM 72.7°F22.6°C 72.1°F22.3°C 98% Calm Calm 2.0 mph3.2 kmh 30.01 in1016.3 mb 0.00 in0.0 mm 0.00 in0.0 mm 0.00 in0.0 mm
02:05 AM 72.7°F22.6°C 72.1°F22.3°C 98% Calm Calm 2.0 mph3.2 kmh 30.01 in1016.3 mb 0.00 in0.0 mm 0.00 in0.0 mm 0.00 in0.0 mm
02:10 AM 72.6°F22.6°C 72.0°F22.2°C 98% Calm Calm 1.0 mph1.6 kmh 30.01 in1016.3 mb 0.00 in0.0 mm 0.00 in0.0 mm 0.00 in0.0 mm
02:15 AM 72.5°F22.5°C 71.9°F22.2°C 98% Calm Calm 1.0 mph1.6 kmh 30.01 in1016.3 mb 0.00 in0.0 mm 0.00 in0.0 mm 0.00 in0.0 mm
02:20 AM 72.4°F22.4°C 71.8°F22.1°C 98% Calm Calm 1.0 mph1.6 kmh 30.01 in1016.3 mb 0.00 in0.0 mm 0.00 in0.0 mm 0.00 in0.0 mm
02:25 AM 72.3°F22.4°C 71.7°F22.1°C 98% Calm Calm 1.0 mph1.6 kmh 30.00 in1015.9 mb 0.00 in0.0 mm 0.00 in0.0 mm 0.00 in0.0 mm
02:30 AM 72.3°F22.4°C 71.7°F22.1°C 98% 1.0 mph SE1.6 kmh SE 3.0 mph4.8 kmh 30.00 in1015.9 mb 0.00 in0.0 mm 0.00 in0.0 mm 0.00 in0.0 mm
02:35 AM 72.4°F22.4°C 71.8°F22.1°C 98% 1.0 mph SE1.6 kmh SE 3.0 mph4.8 kmh 30.00 in1015.9 mb 0.00 in0.0 mm 0.00 in0.0 mm 0.00 in0.0 mm
02:40 AM 72.4°F22.4°C 71.8°F22.1°C 98% 1.0 mph SE1.6 kmh SE 3.0 mph4.8 kmh 30.00 in1015.9 mb 0.00 in0.0 mm 0.00 in0.0 mm 0.00 in0.0 mm
02:45 AM 72.4°F22.4°C 71.8°F22.1°C 98% 1.0 mph SE1.6 kmh SE 3.0 mph4.8 kmh 30.00 in1015.9 mb 0.00 in0.0 mm 0.00 in0.0 mm 0.00 in0.0 mm
02:50 AM 72.4°F22.4°C 71.8°F22.1°C 98% 1.0 mph SE1.6 kmh SE 3.0 mph4.8 kmh 30.00 in1015.9 mb 0.00 in0.0 mm 0.00 in0.0 mm 0.00 in0.0 mm
02:55 AM 72.4°F22.4°C 71.8°F22.1°C 98% 1.0 mph SE1.6 kmh SE 3.0 mph4.8 kmh 30.00 in1015.9 mb 0.00 in0.0 mm 0.00 in0.0 mm 0.00 in0.0 mm
03:00 AM 72.3°F22.4°C 71.7°F22.1°C 98% 1.0 mph SE1.6 kmh SE 3.0 mph4.8 kmh 30.00 in1015.9 mb 0.00 in0.0 mm 0.00 in0.0 mm 0.00 in0.0 mm
03:05 AM 72.3°F22.4°C 71.7°F22.1°C 98% 1.0 mph SE1.6 kmh SE 3.0 mph4.8 kmh 30.00 in1015.9 mb 0.00 in0.0 mm 0.00 in0.0 mm 0.00 in0.0 mm
03:10 AM 72.2°F22.3°C 71.3°F21.8°C 97% 1.0 mph SE1.6 kmh SE 3.0 mph4.8 kmh 30.00 in1015.9 mb 0.00 in0.0 mm 0.00 in0.0 mm 0.00 in0.0 mm
03:15 AM 72.2°F22.3°C 71.3°F21.8°C 97% 1.0 mph SE1.6 kmh SE 2.0 mph3.2 kmh 30.00 in1015.9 mb 0.00 in0.0 mm 0.00 in0.0 mm 0.00 in0.0 mm
03:20 AM 72.2°F22.3°C 71.3°F21.8°C 97% 1.0 mph SE1.6 kmh SE 3.0 mph4.8 kmh 30.01 in1016.3 mb 0.00 in0.0 mm 0.00 in0.0 mm 0.00 in0.0 mm
03:25 AM 72.1°F22.3°C 71.2°F21.8°C 97% 1.0 mph SE1.6 kmh SE 3.0 mph4.8 kmh 30.01 in1016.3 mb 0.00 in0.0 mm 0.00 in0.0 mm 0.00 in0.0 mm
03:30 AM 72.1°F22.3°C 71.2°F21.8°C 97% 1.0 mph SE1.6 kmh SE 3.0 mph4.8 kmh 30.01 in1016.3 mb 0.00 in0.0 mm 0.00 in0.0 mm 0.00 in0.0 mm
03:35 AM 72.0°F22.2°C 71.1°F21.7°C 97% 1.0 mph SE1.6 kmh SE 3.0 mph4.8 kmh 30.01 in1016.3 mb 0.00 in0.0 mm 0.00 in0.0 mm 0.00 in0.0 mm
03:40 AM 72.0°F22.2°C 71.4°F21.9°C 98% 1.0 mph SE1.6 kmh SE 3.0 mph4.8 kmh 30.01 in1016.3 mb 0.00 in0.0 mm 0.00 in0.0 mm 0.00 in0.0 mm
03:45 AM 72.0°F22.2°C 71.4°F21.9°C 98% 1.0 mph SE1.6 kmh SE 2.0 mph3.2 kmh 30.01 in1016.3 mb 0.00 in0.0 mm 0.00 in0.0 mm 0.00 in0.0 mm
03:50 AM 72.0°F22.2°C 71.1°F21.7°C 97% 1.0 mph SE1.6 kmh SE 2.0 mph3.2 kmh 30.01 in1016.3 mb 0.00 in0.0 mm 0.00 in0.0 mm 0.00 in0.0 mm
03:55 AM 72.0°F22.2°C 71.1°F21.7°C 97% 1.0 mph SE1.6 kmh SE 3.0 mph4.8 kmh 30.01 in1016.3 mb 0.00 in0.0 mm 0.00 in0.0 mm 0.00 in0.0 mm
04:00 AM 71.9°F22.2°C 71.0°F21.7°C 97% 1.0 mph SE1.6 kmh SE 3.0 mph4.8 kmh 30.00 in1015.9 mb 0.00 in0.0 mm 0.00 in0.0 mm 0.00 in0.0 mm
04:05 AM 71.9°F22.2°C 71.0°F21.7°C 97% 1.0 mph SE1.6 kmh SE 2.0 mph3.2 kmh 30.00 in1015.9 mb 0.00 in0.0 mm 0.00 in0.0 mm 0.00 in0.0 mm
04:10 AM 71.9°F22.2°C 71.3°F21.8°C 98% 1.0 mph SE1.6 kmh SE 2.0 mph3.2 kmh 30.00 in1015.9 mb 0.00 in0.0 mm 0.00 in0.0 mm 0.00 in0.0 mm
04:15 AM 71.9°F22.2°C 71.3°F21.8°C 98% 1.0 mph SE1.6 kmh SE 3.0 mph4.8 kmh 30.00 in1015.9 mb 0.00 in0.0 mm 0.00 in0.0 mm 0.00 in0.0 mm
04:20 AM 71.9°F22.2°C 71.3°F21.8°C 98% 1.0 mph SE1.6 kmh SE 3.0 mph4.8 kmh 30.00 in1015.9 mb 0.00 in0.0 mm 0.00 in0.0 mm 0.00 in0.0 mm
04:25 AM 71.9°F22.2°C 71.3°F21.8°C 98% Calm Calm 2.0 mph3.2 kmh 30.00 in1015.9 mb 0.00 in0.0 mm 0.00 in0.0 mm 0.00 in0.0 mm
04:30 AM 72.0°F22.2°C 71.4°F21.9°C 98% 1.0 mph SE1.6 kmh SE 3.0 mph4.8 kmh 30.00 in1015.9 mb 0.00 in0.0 mm 0.00 in0.0 mm 0.00 in0.0 mm
04:35 AM 72.0°F22.2°C 71.4°F21.9°C 98% 1.0 mph SE1.6 kmh SE 5.0 mph8.0 kmh 30.00 in1015.9 mb 0.00 in0.0 mm 0.00 in0.0 mm 0.00 in0.0 mm
04:40 AM 72.1°F22.3°C 71.5°F21.9°C 98% 1.0 mph SE1.6 kmh SE 5.0 mph8.0 kmh 30.00 in1015.9 mb 0.00 in0.0 mm 0.00 in0.0 mm 0.00 in0.0 mm
04:45 AM 72.2°F22.3°C 71.6°F22.0°C 98% 1.0 mph SE1.6 kmh SE 3.0 mph4.8 kmh 30.00 in1015.9 mb 0.00 in0.0 mm 0.00 in0.0 mm 0.00 in0.0 mm
04:50 AM 72.2°F22.3°C 71.6°F22.0°C 98% 1.0 mph SE1.6 kmh SE 4.0 mph6.4 kmh 30.00 in1015.9 mb 0.00 in0.0 mm 0.00 in0.0 mm 0.00 in0.0 mm
04:55 AM 72.2°F22.3°C 71.6°F22.0°C 98% 1.0 mph SE1.6 kmh SE 4.0 mph6.4 kmh 30.00 in1015.9 mb 0.00 in0.0 mm 0.00 in0.0 mm 0.00 in0.0 mm
05:00 AM 72.2°F22.3°C 71.6°F22.0°C 98% Calm Calm 1.0 mph1.6 kmh 30.00 in1015.9 mb 0.00 in0.0 mm 0.00 in0.0 mm 0.00 in0.0 mm
05:05 AM 72.2°F22.3°C 71.6°F22.0°C 98% Calm Calm 2.0 mph3.2 kmh 30.00 in1015.9 mb 0.00 in0.0 mm 0.00 in0.0 mm 0.00 in0.0 mm
05:10 AM 72.2°F22.3°C 71.6°F22.0°C 98% Calm Calm 2.0 mph3.2 kmh 30.00 in1015.9 mb 0.00 in0.0 mm 0.00 in0.0 mm 0.00 in0.0 mm
05:15 AM 72.2°F22.3°C 71.6°F22.0°C 98% 1.0 mph SE1.6 kmh SE 2.0 mph3.2 kmh 30.00 in1015.9 mb 0.00 in0.0 mm 0.00 in0.0 mm 0.00 in0.0 mm
05:20 AM 72.2°F22.3°C 71.6°F22.0°C 98% 1.0 mph SE1.6 kmh SE 3.0 mph4.8 kmh 30.00 in1015.9 mb 0.00 in0.0 mm 0.00 in0.0 mm 0.00 in0.0 mm
05:25 AM 72.3°F22.4°C 71.7°F22.1°C 98% 1.0 mph SE1.6 kmh SE 3.0 mph4.8 kmh 30.00 in1015.9 mb 0.00 in0.0 mm 0.00 in0.0 mm 0.00 in0.0 mm
05:30 AM 72.3°F22.4°C 71.7°F22.1°C 98% 1.0 mph SE1.6 kmh SE 2.0 mph3.2 kmh 30.00 in1015.9 mb 0.00 in0.0 mm 0.00 in0.0 mm 0.00 in0.0 mm
05:35 AM 72.4°F22.4°C 71.8°F22.1°C 98% 1.0 mph SE1.6 kmh SE 2.0 mph3.2 kmh 30.00 in1015.9 mb 0.00 in0.0 mm 0.00 in0.0 mm 0.00 in0.0 mm
05:40 AM 72.5°F22.5°C 71.9°F22.2°C 98% 1.0 mph SE1.6 kmh SE 2.0 mph3.2 kmh 30.00 in1015.9 mb 0.00 in0.0 mm 0.00 in0.0 mm 0.00 in0.0 mm
05:45 AM 72.6°F22.6°C 72.0°F22.2°C 98% Calm Calm 2.0 mph3.2 kmh 30.00 in1015.9 mb 0.00 in0.0 mm 0.00 in0.0 mm 0.00 in0.0 mm
05:50 AM 72.7°F22.6°C 72.1°F22.3°C 98% Calm Calm 3.0 mph4.8 kmh 30.00 in1015.9 mb 0.00 in0.0 mm 0.00 in0.0 mm 0.00 in0.0 mm
05:55 AM 72.8°F22.7°C 72.2°F22.3°C 98% 1.0 mph SE1.6 kmh SE 3.0 mph4.8 kmh 30.00 in1015.9 mb 0.00 in0.0 mm 0.00 in0.0 mm 0.00 in0.0 mm
06:00 AM 72.9°F22.7°C 72.3°F22.4°C 98% 1.0 mph SE1.6 kmh SE 3.0 mph4.8 kmh 30.00 in1015.9 mb 0.00 in0.0 mm 0.00 in0.0 mm 0.00 in0.0 mm
06:05 AM 73.0°F22.8°C 72.4°F22.4°C 98% 1.0 mph SE1.6 kmh SE 3.0 mph4.8 kmh 30.01 in1016.3 mb 0.00 in0.0 mm 0.00 in0.0 mm 0.00 in0.0 mm
06:10 AM 73.1°F22.8°C 72.5°F22.5°C 98% 1.0 mph SE1.6 kmh SE 3.0 mph4.8 kmh 30.01 in1016.3 mb 0.00 in0.0 mm 0.00 in0.0 mm 0.00 in0.0 mm
06:15 AM 73.2°F22.9°C 72.6°F22.6°C 98% 1.0 mph SE1.6 kmh SE 3.0 mph4.8 kmh 30.01 in1016.3 mb 0.00 in0.0 mm 0.00 in0.0 mm 0.00 in0.0 mm
06:20 AM 73.2°F22.9°C 72.6°F22.6°C 98% 1.0 mph SE1.6 kmh SE 2.0 mph3.2 kmh 30.01 in1016.3 mb 0.00 in0.0 mm 0.00 in0.0 mm 0.00 in0.0 mm
06:25 AM 73.3°F22.9°C 72.7°F22.6°C 98% 1.0 mph SE1.6 kmh SE 2.0 mph3.2 kmh 30.01 in1016.3 mb 0.00 in0.0 mm 0.00 in0.0 mm 0.00 in0.0 mm
06:30 AM 73.4°F23.0°C 72.8°F22.7°C 98% 1.0 mph SE1.6 kmh SE 2.0 mph3.2 kmh 30.02 in1016.6 mb 0.00 in0.0 mm 0.00 in0.0 mm 0.00 in0.0 mm
06:35 AM 73.6°F23.1°C 73.0°F22.8°C 98% 1.0 mph SE1.6 kmh SE 2.0 mph3.2 kmh 30.02 in1016.6 mb 0.00 in0.0 mm 0.00 in0.0 mm 0.00 in0.0 mm
06:40 AM 73.9°F23.3°C 73.3°F22.9°C 98% 1.0 mph SE1.6 kmh SE 3.0 mph4.8 kmh 30.02 in1016.6 mb 0.00 in0.0 mm 0.00 in0.0 mm 0.00 in0.0 mm
06:45 AM 74.2°F23.4°C 73.6°F23.1°C 98% 1.0 mph SE1.6 kmh SE 7.0 mph11.3 kmh 30.02 in1016.6 mb 0.00 in0.0 mm 0.00 in0.0 mm 0.00 in0.0 mm
06:50 AM 74.5°F23.6°C 73.9°F23.3°C 98% 2.0 mph SE3.2 kmh SE 7.0 mph11.3 kmh 30.02 in1016.6 mb 0.00 in0.0 mm 0.00 in0.0 mm 0.00 in0.0 mm
06:55 AM 74.8°F23.8°C 73.9°F23.3°C 97% 2.0 mph SE3.2 kmh SE 7.0 mph11.3 kmh 30.02 in1016.6 mb 0.00 in0.0 mm 0.00 in0.0 mm 0.00 in0.0 mm
07:00 AM 75.1°F23.9°C 73.9°F23.3°C 96% 2.0 mph SE3.2 kmh SE 7.0 mph11.3 kmh 30.02 in1016.6 mb 0.00 in0.0 mm 0.00 in0.0 mm 0.00 in0.0 mm
07:05 AM 75.2°F24.0°C 74.0°F23.3°C 96% 2.0 mph ESE3.2 kmh ESE 8.0 mph12.9 kmh 30.02 in1016.6 mb 0.00 in0.0 mm 0.00 in0.0 mm 0.00 in0.0 mm
07:10 AM 75.4°F24.1°C 73.9°F23.3°C 95% 2.0 mph ESE3.2 kmh ESE 8.0 mph12.9 kmh 30.02 in1016.6 mb 0.00 in0.0 mm 0.00 in0.0 mm 0.00 in0.0 mm
07:15 AM 75.5°F24.2°C 74.0°F23.3°C 95% 2.0 mph E3.2 kmh E 8.0 mph12.9 kmh 30.03 in1016.9 mb 0.00 in0.0 mm 0.00 in0.0 mm 0.00 in0.0 mm
07:20 AM 75.7°F24.3°C 74.5°F23.6°C 96% 2.0 mph ESE3.2 kmh ESE 6.0 mph9.7 kmh 30.02 in1016.6 mb 0.00 in0.0 mm 0.00 in0.0 mm 0.00 in0.0 mm
07:25 AM 76.0°F24.4°C 74.5°F23.6°C 95% 2.0 mph E3.2 kmh E 6.0 mph9.7 kmh 30.02 in1016.6 mb 0.00 in0.0 mm 0.00 in0.0 mm 0.00 in0.0 mm
07:30 AM 76.3°F24.6°C 74.8°F23.8°C 95% 3.0 mph E4.8 kmh E 8.0 mph12.9 kmh 30.02 in1016.6 mb 0.00 in0.0 mm 0.00 in0.0 mm 0.00 in0.0 mm
07:35 AM 76.6°F24.8°C 74.7°F23.7°C 94% 3.0 mph ESE4.8 kmh ESE 8.0 mph12.9 kmh 30.03 in1016.9 mb 0.00 in0.0 mm 0.00 in0.0 mm 0.00 in0.0 mm
07:40 AM 76.8°F24.9°C 74.9°F23.8°C 94% 3.0 mph SE4.8 kmh SE 9.0 mph14.5 kmh 30.03 in1016.9 mb 0.00 in0.0 mm 0.00 in0.0 mm 0.00 in0.0 mm
07:45 AM 77.1°F25.1°C 74.9°F23.8°C 93% 3.0 mph ESE4.8 kmh ESE 9.0 mph14.5 kmh 30.03 in1016.9 mb 0.00 in0.0 mm 0.00 in0.0 mm 0.00 in0.0 mm
07:50 AM 77.4°F25.2°C 74.9°F23.8°C 92% 3.0 mph E4.8 kmh E 9.0 mph14.5 kmh 30.03 in1016.9 mb 0.00 in0.0 mm 0.00 in0.0 mm 0.00 in0.0 mm
07:55 AM 77.8°F25.4°C 75.6°F24.2°C 93% 3.0 mph E4.8 kmh E 9.0 mph14.5 kmh 30.03 in1016.9 mb 0.00 in0.0 mm 0.00 in0.0 mm 0.00 in0.0 mm
08:00 AM 78.5°F25.8°C 76.0°F24.4°C 92% 3.0 mph E4.8 kmh E 8.0 mph12.9 kmh 30.03 in1016.9 mb 0.00 in0.0 mm 0.00 in0.0 mm 0.00 in0.0 mm
08:05 AM 79.2°F26.2°C 76.7°F24.8°C 92% 3.0 mph ESE4.8 kmh ESE 8.0 mph12.9 kmh 30.04 in1017.3 mb 0.00 in0.0 mm 0.00 in0.0 mm 0.00 in0.0 mm
08:10 AM 79.7°F26.5°C 75.8°F24.3°C 88% 4.0 mph SE6.4 kmh SE 12.0 mph19.3 kmh 30.04 in1017.3 mb 0.00 in0.0 mm 0.00 in0.0 mm 0.00 in0.0 mm
08:15 AM 79.8°F26.6°C 75.9°F24.4°C 88% 4.0 mph SE6.4 kmh SE 12.0 mph19.3 kmh 30.04 in1017.3 mb 0.00 in0.0 mm 0.00 in0.0 mm 0.00 in0.0 mm
08:20 AM 79.9°F26.6°C 76.4°F24.7°C 89% 4.0 mph ESE6.4 kmh ESE 9.0 mph14.5 kmh 30.04 in1017.3 mb 0.00 in0.0 mm 0.00 in0.0 mm 0.00 in0.0 mm
08:25 AM 80.2°F26.8°C 76.3°F24.6°C 88% 5.0 mph ESE8.0 kmh ESE 11.0 mph17.7 kmh 30.04 in1017.3 mb 0.00 in0.0 mm 0.00 in0.0 mm 0.00 in0.0 mm
08:30 AM 80.5°F26.9°C 76.6°F24.8°C 88% 5.0 mph SE8.0 kmh SE 11.0 mph17.7 kmh 30.04 in1017.3 mb 0.00 in0.0 mm 0.00 in0.0 mm 0.00 in0.0 mm
08:35 AM 80.5°F26.9°C 77.0°F25.0°C 89% 4.0 mph ESE6.4 kmh ESE 11.0 mph17.7 kmh 30.04 in1017.3 mb 0.00 in0.0 mm 0.00 in0.0 mm 0.00 in0.0 mm
08:40 AM 80.9°F27.2°C 77.4°F25.2°C 89% 3.0 mph SE4.8 kmh SE 8.0 mph12.9 kmh 30.04 in1017.3 mb 0.00 in0.0 mm 0.00 in0.0 mm 0.00 in0.0 mm
08:45 AM 81.2°F27.3°C 77.0°F25.0°C 87% 3.0 mph SE4.8 kmh SE 8.0 mph12.9 kmh 30.04 in1017.3 mb 0.00 in0.0 mm 0.00 in0.0 mm 0.00 in0.0 mm
08:50 AM 81.3°F27.4°C 76.4°F24.7°C 85% 4.0 mph SE6.4 kmh SE 11.0 mph17.7 kmh 30.04 in1017.3 mb 0.00 in0.0 mm 0.00 in0.0 mm 0.00 in0.0 mm
08:55 AM 81.4°F27.4°C 76.5°F24.7°C 85% 4.0 mph SE6.4 kmh SE 11.0 mph17.7 kmh 30.04 in1017.3 mb 0.00 in0.0 mm 0.00 in0.0 mm 0.00 in0.0 mm
09:00 AM 81.6°F27.6°C 77.0°F25.0°C 86% 3.0 mph SE4.8 kmh SE 8.0 mph12.9 kmh 30.03 in1016.9 mb 0.00 in0.0 mm 0.00 in0.0 mm 0.00 in0.0 mm
09:05 AM 82.2°F27.9°C 76.9°F24.9°C 84% 4.0 mph SE6.4 kmh SE 9.0 mph14.5 kmh 30.03 in1016.9 mb 0.00 in0.0 mm 0.00 in0.0 mm 0.00 in0.0 mm
09:10 AM 82.7°F28.2°C 77.0°F25.0°C 83% 5.0 mph SE8.0 kmh SE 9.0 mph14.5 kmh 30.03 in1016.9 mb 0.00 in0.0 mm 0.00 in0.0 mm 0.00 in0.0 mm
09:15 AM 83.3°F28.5°C 77.6°F25.3°C 83% 5.0 mph SE8.0 kmh SE 12.0 mph19.3 kmh 30.03 in1016.9 mb 0.00 in0.0 mm 0.00 in0.0 mm 0.00 in0.0 mm
09:20 AM 84.1°F28.9°C 78.4°F25.8°C 83% 5.0 mph SE8.0 kmh SE 12.0 mph19.3 kmh 30.03 in1016.9 mb 0.00 in0.0 mm 0.00 in0.0 mm 0.00 in0.0 mm
09:25 AM 84.8°F29.3°C 78.3°F25.7°C 81% 4.0 mph SE6.4 kmh SE 8.0 mph12.9 kmh 30.03 in1016.9 mb 0.00 in0.0 mm 0.00 in0.0 mm 0.00 in0.0 mm
09:30 AM 85.2°F29.6°C 77.9°F25.5°C 79% 4.0 mph SE6.4 kmh SE 9.0 mph14.5 kmh 30.03 in1016.9 mb 0.00 in0.0 mm 0.00 in0.0 mm 0.00 in0.0 mm
09:35 AM 85.4°F29.7°C 77.8°F25.4°C 78% 5.0 mph SE8.0 kmh SE 9.0 mph14.5 kmh 30.03 in1016.9 mb 0.00 in0.0 mm 0.00 in0.0 mm 0.00 in0.0 mm
09:40 AM 85.6°F29.8°C 77.9°F25.5°C 78% 5.0 mph SE8.0 kmh SE 11.0 mph17.7 kmh 30.03 in1016.9 mb 0.00 in0.0 mm 0.00 in0.0 mm 0.00 in0.0 mm
09:45 AM 85.8°F29.9°C 77.8°F25.4°C 77% 5.0 mph SE8.0 kmh SE 11.0 mph17.7 kmh 30.03 in1016.9 mb 0.00 in0.0 mm 0.00 in0.0 mm 0.00 in0.0 mm
09:50 AM 85.5°F29.7°C 78.6°F25.9°C 80% 5.0 mph SE8.0 kmh SE 11.0 mph17.7 kmh 30.03 in1016.9 mb 0.00 in0.0 mm 0.00 in0.0 mm 0.00 in0.0 mm
09:55 AM 85.8°F29.9°C 77.0°F25.0°C 75% 6.0 mph SE9.7 kmh SE 12.0 mph19.3 kmh 30.03 in1016.9 mb 0.00 in0.0 mm 0.00 in0.0 mm 0.00 in0.0 mm
10:00 AM 86.0°F30.0°C 78.7°F25.9°C 79% 5.0 mph SE8.0 kmh SE 12.0 mph19.3 kmh 30.03 in1016.9 mb 0.00 in0.0 mm 0.00 in0.0 mm 0.00 in0.0 mm
10:05 AM 86.6°F30.3°C 77.7°F25.4°C 75% 5.0 mph SE8.0 kmh SE 11.0 mph17.7 kmh 30.03 in1016.9 mb 0.00 in0.0 mm 0.00 in0.0 mm 0.00 in0.0 mm
10:10 AM 87.2°F30.7°C 79.1°F26.2°C 77% 5.0 mph SE8.0 kmh SE 11.0 mph17.7 kmh 30.03 in1016.9 mb 0.00 in0.0 mm 0.00 in0.0 mm 0.00 in0.0 mm
10:15 AM 87.9°F31.1°C 78.2°F25.7°C 73% 5.0 mph SE8.0 kmh SE 11.0 mph17.7 kmh 30.03 in1016.9 mb 0.00 in0.0 mm 0.00 in0.0 mm 0.00 in0.0 mm
10:20 AM 87.8°F31.0°C 77.6°F25.3°C 72% 5.0 mph SE8.0 kmh SE 11.0 mph17.7 kmh 30.03 in1016.9 mb 0.00 in0.0 mm 0.00 in0.0 mm 0.00 in0.0 mm
10:25 AM 87.8°F31.0°C 78.9°F26.1°C 75% 5.0 mph SE8.0 kmh SE 9.0 mph14.5 kmh 30.04 in1017.3 mb 0.00 in0.0 mm 0.00 in0.0 mm 0.00 in0.0 mm
10:30 AM 87.5°F30.8°C 77.4°F25.2°C 72% 5.0 mph SE8.0 kmh SE 10.0 mph16.1 kmh 30.04 in1017.3 mb 0.00 in0.0 mm 0.00 in0.0 mm 0.00 in0.0 mm
10:35 AM 86.9°F30.5°C 77.2°F25.1°C 73% 6.0 mph SE9.7 kmh SE 10.0 mph16.1 kmh 30.04 in1017.3 mb 0.00 in0.0 mm 0.00 in0.0 mm 0.00 in0.0 mm
10:40 AM 86.9°F30.5°C 77.6°F25.3°C 74% 6.0 mph SE9.7 kmh SE 10.0 mph16.1 kmh 30.04 in1017.3 mb 0.00 in0.0 mm 0.00 in0.0 mm 0.00 in0.0 mm
10:45 AM 87.3°F30.7°C 78.4°F25.8°C 75% 5.0 mph SE8.0 kmh SE 10.0 mph16.1 kmh 30.04 in1017.3 mb 0.00 in0.0 mm 0.00 in0.0 mm 0.00 in0.0 mm
10:50 AM 87.5°F30.8°C 77.8°F25.4°C 73% 4.0 mph SE6.4 kmh SE 8.0 mph12.9 kmh 30.04 in1017.3 mb 0.00 in0.0 mm 0.00 in0.0 mm 0.00 in0.0 mm
10:55 AM 87.7°F30.9°C 78.0°F25.6°C 73% 4.0 mph SE6.4 kmh SE 7.0 mph11.3 kmh 30.04 in1017.3 mb 0.00 in0.0 mm 0.00 in0.0 mm 0.00 in0.0 mm
11:00 AM 87.6°F30.9°C 77.0°F25.0°C 71% 4.0 mph SE6.4 kmh SE 10.0 mph16.1 kmh 30.03 in1016.9 mb 0.00 in0.0 mm 0.00 in0.0 mm 0.00 in0.0 mm
11:05 AM 87.6°F30.9°C 77.0°F25.0°C 71% 3.0 mph SE4.8 kmh SE 10.0 mph16.1 kmh 30.03 in1016.9 mb 0.00 in0.0 mm 0.00 in0.0 mm 0.00 in0.0 mm
11:10 AM 87.9°F31.1°C 79.0°F26.1°C 75% 3.0 mph SE4.8 kmh SE 7.0 mph11.3 kmh 30.03 in1016.9 mb 0.00 in0.0 mm 0.00 in0.0 mm 0.00 in0.0 mm
11:15 AM 88.4°F31.3°C 78.2°F25.7°C 72% 4.0 mph SE6.4 kmh SE 10.0 mph16.1 kmh 30.03 in1016.9 mb 0.00 in0.0 mm 0.00 in0.0 mm 0.00 in0.0 mm
11:20 AM 88.4°F31.3°C 77.8°F25.4°C 71% 4.0 mph SE6.4 kmh SE 10.0 mph16.1 kmh 30.03 in1016.9 mb 0.00 in0.0 mm 0.00 in0.0 mm 0.00 in0.0 mm
11:25 AM 88.6°F31.4°C 78.0°F25.6°C 71% 4.0 mph SE6.4 kmh SE 9.0 mph14.5 kmh 30.03 in1016.9 mb 0.00 in0.0 mm 0.00 in0.0 mm 0.00 in0.0 mm
11:30 AM 88.9°F31.6°C 77.4°F25.2°C 69% 5.0 mph SE8.0 kmh SE 11.0 mph17.7 kmh 30.03 in1016.9 mb 0.00 in0.0 mm 0.00 in0.0 mm 0.00 in0.0 mm
11:35 AM 89.0°F31.7°C 77.5°F25.3°C 69% 5.0 mph SE8.0 kmh SE 11.0 mph17.7 kmh 30.03 in1016.9 mb 0.00 in0.0 mm 0.00 in0.0 mm 0.00 in0.0 mm
11:40 AM 88.9°F31.6°C 77.8°F25.4°C 70% 5.0 mph SSE8.0 kmh SSE 9.0 mph14.5 kmh 30.03 in1016.9 mb 0.00 in0.0 mm 0.00 in0.0 mm 0.00 in0.0 mm
11:45 AM 89.2°F31.8°C 79.0°F26.1°C 72% 3.0 mph SE4.8 kmh SE 7.0 mph11.3 kmh 30.02 in1016.6 mb 0.00 in0.0 mm 0.00 in0.0 mm 0.00 in0.0 mm
11:50 AM 89.3°F31.8°C 77.3°F25.2°C 68% 4.0 mph SE6.4 kmh SE 10.0 mph16.1 kmh 30.02 in1016.6 mb 0.00 in0.0 mm 0.00 in0.0 mm 0.00 in0.0 mm
11:55 AM 89.5°F31.9°C 78.0°F25.6°C 69% 5.0 mph SE8.0 kmh SE 12.0 mph19.3 kmh 30.02 in1016.6 mb 0.00 in0.0 mm 0.00 in0.0 mm 0.00 in0.0 mm
12:00 PM 89.7°F32.1°C 77.7°F25.4°C 68% 4.0 mph SE6.4 kmh SE 12.0 mph19.3 kmh 30.02 in1016.6 mb 0.00 in0.0 mm 0.00 in0.0 mm 0.00 in0.0 mm
12:05 PM 89.4°F31.9°C 77.4°F25.2°C 68% 5.0 mph SE8.0 kmh SE 12.0 mph19.3 kmh 30.02 in1016.6 mb 0.00 in0.0 mm 0.00 in0.0 mm 0.00 in0.0 mm
12:10 PM 89.4°F31.9°C 77.0°F25.0°C 67% 6.0 mph SE9.7 kmh SE 14.0 mph22.5 kmh 30.02 in1016.6 mb 0.00 in0.0 mm 0.00 in0.0 mm 0.00 in0.0 mm
12:15 PM 89.2°F31.8°C 75.0°F23.9°C 63% 7.0 mph SE11.3 kmh SE 14.0 mph22.5 kmh 30.02 in1016.6 mb 0.00 in0.0 mm 0.00 in0.0 mm 0.00 in0.0 mm
12:20 PM 89.4°F31.9°C 74.7°F23.7°C 62% 8.0 mph SE12.9 kmh SE 15.0 mph24.1 kmh 30.01 in1016.3 mb 0.00 in0.0 mm 0.00 in0.0 mm 0.00 in0.0 mm
12:25 PM 89.9°F32.2°C 73.7°F23.2°C 59% 7.0 mph SE11.3 kmh SE 15.0 mph24.1 kmh 30.01 in1016.3 mb 0.00 in0.0 mm 0.00 in0.0 mm 0.00 in0.0 mm
12:30 PM 90.1°F32.3°C 74.3°F23.5°C 60% 6.0 mph SE9.7 kmh SE 11.0 mph17.7 kmh 30.01 in1016.3 mb 0.00 in0.0 mm 0.00 in0.0 mm 0.00 in0.0 mm
12:35 PM 90.5°F32.5°C 75.7°F24.3°C 62% 6.0 mph SE9.7 kmh SE 10.0 mph16.1 kmh 30.00 in1015.9 mb 0.00 in0.0 mm 0.00 in0.0 mm 0.00 in0.0 mm
12:40 PM 90.6°F32.6°C 75.8°F24.3°C 62% 5.0 mph SE8.0 kmh SE 10.0 mph16.1 kmh 30.00 in1015.9 mb 0.00 in0.0 mm 0.00 in0.0 mm 0.00 in0.0 mm
12:45 PM 90.6°F32.6°C 76.3°F24.6°C 63% 6.0 mph SE9.7 kmh SE 9.0 mph14.5 kmh 30.00 in1015.9 mb 0.00 in0.0 mm 0.00 in0.0 mm 0.00 in0.0 mm
12:50 PM 90.7°F32.6°C 77.3°F25.2°C 65% 5.0 mph SE8.0 kmh SE 9.0 mph14.5 kmh 30.00 in1015.9 mb 0.00 in0.0 mm 0.00 in0.0 mm 0.00 in0.0 mm
12:55 PM 90.7°F32.6°C 77.8°F25.4°C 66% 5.0 mph SE8.0 kmh SE 9.0 mph14.5 kmh 30.00 in1015.9 mb 0.00 in0.0 mm 0.00 in0.0 mm 0.00 in0.0 mm
01:00 PM 90.8°F32.7°C 76.5°F24.7°C 63% 4.0 mph SE6.4 kmh SE 11.0 mph17.7 kmh 30.00 in1015.9 mb 0.00 in0.0 mm 0.00 in0.0 mm 0.00 in0.0 mm
01:05 PM 90.5°F32.5°C 76.2°F24.6°C 63% 4.0 mph SE6.4 kmh SE 11.0 mph17.7 kmh 30.00 in1015.9 mb 0.00 in0.0 mm 0.00 in0.0 mm 0.00 in0.0 mm
01:10 PM 89.7°F32.1°C 75.9°F24.4°C 64% 3.0 mph SE4.8 kmh SE 10.0 mph16.1 kmh 30.00 in1015.9 mb 0.00 in0.0 mm 0.00 in0.0 mm 0.00 in0.0 mm
01:15 PM 88.5°F31.4°C 76.1°F24.5°C 67% 3.0 mph E4.8 kmh E 10.0 mph16.1 kmh 30.00 in1015.9 mb 0.00 in0.0 mm 0.00 in0.0 mm 0.00 in0.0 mm
01:20 PM 87.0°F30.6°C 75.6°F24.2°C 69% 4.0 mph E6.4 kmh E 10.0 mph16.1 kmh 30.00 in1015.9 mb 0.00 in0.0 mm 0.00 in0.0 mm 0.00 in0.0 mm
01:25 PM 86.1°F30.1°C 75.6°F24.2°C 71% 4.0 mph E6.4 kmh E 10.0 mph16.1 kmh 30.01 in1016.3 mb 0.00 in0.0 mm 0.00 in0.0 mm 0.00 in0.0 mm
01:30 PM 85.8°F29.9°C 74.9°F23.8°C 70% 4.0 mph E6.4 kmh E 10.0 mph16.1 kmh 30.00 in1015.9 mb 0.00 in0.0 mm 0.00 in0.0 mm 0.00 in0.0 mm
01:35 PM 86.0°F30.0°C 74.6°F23.7°C 69% 3.0 mph E4.8 kmh E 9.0 mph14.5 kmh 30.00 in1015.9 mb 0.00 in0.0 mm 0.00 in0.0 mm 0.00 in0.0 mm
01:40 PM 86.2°F30.1°C 75.3°F24.1°C 70% 3.0 mph E4.8 kmh E 8.0 mph12.9 kmh 30.00 in1015.9 mb 0.00 in0.0 mm 0.00 in0.0 mm 0.00 in0.0 mm
01:45 PM 86.6°F30.3°C 76.1°F24.5°C 71% 3.0 mph ESE4.8 kmh ESE 8.0 mph12.9 kmh 29.99 in1015.6 mb 0.00 in0.0 mm 0.00 in0.0 mm 0.00 in0.0 mm
01:50 PM 86.9°F30.5°C 75.5°F24.2°C 69% 3.0 mph ESE4.8 kmh ESE 8.0 mph12.9 kmh 29.99 in1015.6 mb 0.00 in0.0 mm 0.00 in0.0 mm 0.00 in0.0 mm
01:55 PM 87.4°F30.8°C 77.7°F25.4°C 73% 4.0 mph ESE6.4 kmh ESE 9.0 mph14.5 kmh 29.98 in1015.2 mb 0.00 in0.0 mm 0.00 in0.0 mm 0.00 in0.0 mm
02:00 PM 88.3°F31.3°C 77.3°F25.2°C 70% 4.0 mph ESE6.4 kmh ESE 9.0 mph14.5 kmh 29.98 in1015.2 mb 0.00 in0.0 mm 0.00 in0.0 mm 0.00 in0.0 mm
02:05 PM 89.4°F31.9°C 78.3°F25.7°C 70% 3.0 mph E4.8 kmh E 8.0 mph12.9 kmh 29.98 in1015.2 mb 0.00 in0.0 mm 0.00 in0.0 mm 0.00 in0.0 mm
02:10 PM 90.2°F32.3°C 78.6°F25.9°C 69% 3.0 mph SE4.8 kmh SE 7.0 mph11.3 kmh 29.98 in1015.2 mb 0.00 in0.0 mm 0.00 in0.0 mm 0.00 in0.0 mm
02:15 PM 90.3°F32.4°C 77.8°F25.4°C 67% 3.0 mph SE4.8 kmh SE 7.0 mph11.3 kmh 29.99 in1015.6 mb 0.00 in0.0 mm 0.00 in0.0 mm 0.00 in0.0 mm
02:20 PM 90.3°F32.4°C 78.3°F25.7°C 68% 3.0 mph ESE4.8 kmh ESE 8.0 mph12.9 kmh 29.99 in1015.6 mb 0.00 in0.0 mm 0.00 in0.0 mm 0.00 in0.0 mm
02:25 PM 89.5°F31.9°C 76.6°F24.8°C 66% 4.0 mph ESE6.4 kmh ESE 11.0 mph17.7 kmh 30.00 in1015.9 mb 0.00 in0.0 mm 0.00 in0.0 mm 0.00 in0.0 mm
02:30 PM 88.6°F31.4°C 76.7°F24.8°C 68% 5.0 mph ESE8.0 kmh ESE 11.0 mph17.7 kmh 30.00 in1015.9 mb 0.00 in0.0 mm 0.00 in0.0 mm 0.00 in0.0 mm
02:35 PM 87.9°F31.1°C 76.5°F24.7°C 69% 5.0 mph ESE8.0 kmh ESE 10.0 mph16.1 kmh 29.99 in1015.6 mb 0.00 in0.0 mm 0.00 in0.0 mm 0.00 in0.0 mm
02:40 PM 87.4°F30.8°C 76.0°F24.4°C 69% 4.0 mph ESE6.4 kmh ESE 10.0 mph16.1 kmh 29.99 in1015.6 mb 0.00 in0.0 mm 0.00 in0.0 mm 0.00 in0.0 mm
02:45 PM 86.4°F30.2°C 75.5°F24.2°C 70% 6.0 mph ESE9.7 kmh ESE 18.0 mph29.0 kmh 30.00 in1015.9 mb 0.00 in0.0 mm 0.00 in0.0 mm 0.00 in0.0 mm
02:50 PM 84.5°F29.2°C 74.9°F23.8°C 73% 8.0 mph SE12.9 kmh SE 19.0 mph30.6 kmh 30.00 in1015.9 mb 0.00 in0.0 mm 0.00 in0.0 mm 0.00 in0.0 mm
02:55 PM 82.3°F27.9°C 74.4°F23.6°C 77% 9.0 mph SE14.5 kmh SE 19.0 mph30.6 kmh 30.00 in1015.9 mb 0.00 in0.0 mm 0.00 in0.0 mm 0.00 in0.0 mm
03:00 PM 81.1°F27.3°C 74.0°F23.3°C 79% 10.0 mph SE16.1 kmh SE 18.0 mph29.0 kmh 30.00 in1015.9 mb 0.00 in0.0 mm 0.00 in0.0 mm 0.00 in0.0 mm
03:05 PM 81.0°F27.2°C 75.0°F23.9°C 82% 9.0 mph ESE14.5 kmh ESE 17.0 mph27.4 kmh 30.00 in1015.9 mb 0.00 in0.0 mm 0.00 in0.0 mm 0.00 in0.0 mm
03:10 PM 81.1°F27.3°C 74.7°F23.7°C 81% 8.0 mph ESE12.9 kmh ESE 17.0 mph27.4 kmh 30.00 in1015.9 mb 0.00 in0.0 mm 0.00 in0.0 mm 0.00 in0.0 mm
03:15 PM 81.3°F27.4°C 74.9°F23.8°C 81% 6.0 mph ESE9.7 kmh ESE 17.0 mph27.4 kmh 30.00 in1015.9 mb 0.00 in0.0 mm 0.00 in0.0 mm 0.00 in0.0 mm
03:20 PM 81.3°F27.4°C 74.9°F23.8°C 81% 5.0 mph ESE8.0 kmh ESE 14.0 mph22.5 kmh 30.00 in1015.9 mb 0.00 in0.0 mm 0.00 in0.0 mm 0.00 in0.0 mm
03:25 PM 81.1°F27.3°C 75.1°F23.9°C 82% 6.0 mph SE9.7 kmh SE 14.0 mph22.5 kmh 30.00 in1015.9 mb 0.00 in0.0 mm 0.00 in0.0 mm 0.00 in0.0 mm
03:30 PM 80.9°F27.2°C 74.5°F23.6°C 81% 6.0 mph SE9.7 kmh SE 13.0 mph20.9 kmh 30.00 in1015.9 mb 0.00 in0.0 mm 0.00 in0.0 mm 0.00 in0.0 mm
03:35 PM 80.5°F26.9°C 74.1°F23.4°C 81% 7.0 mph SE11.3 kmh SE 13.0 mph20.9 kmh 30.00 in1015.9 mb 0.00 in0.0 mm 0.00 in0.0 mm 0.00 in0.0 mm
03:40 PM 80.7°F27.1°C 74.7°F23.7°C 82% 6.0 mph SE9.7 kmh SE 13.0 mph20.9 kmh 30.00 in1015.9 mb 0.00 in0.0 mm 0.00 in0.0 mm 0.00 in0.0 mm
03:45 PM 81.0°F27.2°C 74.6°F23.7°C 81% 5.0 mph SE8.0 kmh SE 11.0 mph17.7 kmh 30.00 in1015.9 mb 0.00 in0.0 mm 0.00 in0.0 mm 0.00 in0.0 mm
03:50 PM 81.2°F27.3°C 74.4°F23.6°C 80% 4.0 mph SE6.4 kmh SE 8.0 mph12.9 kmh 30.00 in1015.9 mb 0.00 in0.0 mm 0.00 in0.0 mm 0.00 in0.0 mm
03:55 PM 81.1°F27.3°C 74.3°F23.5°C 80% 4.0 mph ESE6.4 kmh ESE 8.0 mph12.9 kmh 30.00 in1015.9 mb 0.00 in0.0 mm 0.00 in0.0 mm 0.00 in0.0 mm
04:00 PM 80.7°F27.1°C 74.7°F23.7°C 82% 5.0 mph SE8.0 kmh SE 13.0 mph20.9 kmh 30.00 in1015.9 mb 0.00 in0.0 mm 0.00 in0.0 mm 0.00 in0.0 mm
04:05 PM 79.9°F26.6°C 74.3°F23.5°C 83% 6.0 mph SE9.7 kmh SE 13.0 mph20.9 kmh 30.00 in1015.9 mb 0.00 in0.0 mm 0.00 in0.0 mm 0.00 in0.0 mm
04:10 PM 79.1°F26.2°C 73.8°F23.2°C 84% 8.0 mph SE12.9 kmh SE 13.0 mph20.9 kmh 30.00 in1015.9 mb 0.00 in0.0 mm 0.00 in0.0 mm 0.00 in0.0 mm
04:15 PM 78.5°F25.8°C 73.6°F23.1°C 85% 8.0 mph SE12.9 kmh SE 14.0 mph22.5 kmh 30.01 in1016.3 mb 0.00 in0.0 mm 0.00 in0.0 mm 0.00 in0.0 mm
04:20 PM 78.3°F25.7°C 73.1°F22.8°C 84% 8.0 mph SE12.9 kmh SE 14.0 mph22.5 kmh 30.01 in1016.3 mb 0.00 in0.0 mm 0.00 in0.0 mm 0.00 in0.0 mm
04:25 PM 78.0°F25.6°C 73.1°F22.8°C 85% 8.0 mph SE12.9 kmh SE 12.0 mph19.3 kmh 30.01 in1016.3 mb 0.00 in0.0 mm 0.00 in0.0 mm 0.00 in0.0 mm
04:30 PM 77.9°F25.5°C 73.4°F23.0°C 86% 7.0 mph SE11.3 kmh SE 13.0 mph20.9 kmh 30.01 in1016.3 mb 0.00 in0.0 mm 0.00 in0.0 mm 0.00 in0.0 mm
04:35 PM 77.7°F25.4°C 73.5°F23.1°C 87% 7.0 mph SE11.3 kmh SE 13.0 mph20.9 kmh 30.01 in1016.3 mb 0.00 in0.0 mm 0.00 in0.0 mm 0.00 in0.0 mm
04:40 PM 77.5°F25.3°C 73.7°F23.2°C 88% 7.0 mph SE11.3 kmh SE 13.0 mph20.9 kmh 30.01 in1016.3 mb 0.00 in0.0 mm 0.00 in0.0 mm 0.00 in0.0 mm
04:45 PM 77.4°F25.2°C 73.6°F23.1°C 88% 8.0 mph SE12.9 kmh SE 13.0 mph20.9 kmh 30.01 in1016.3 mb 0.00 in0.0 mm 0.00 in0.0 mm 0.00 in0.0 mm
04:50 PM 77.1°F25.1°C 73.6°F23.1°C 89% 7.0 mph SE11.3 kmh SE 12.0 mph19.3 kmh 30.02 in1016.6 mb 0.00 in0.0 mm 0.00 in0.0 mm 0.00 in0.0 mm
04:55 PM 76.9°F24.9°C 73.7°F23.2°C 90% 6.0 mph SSE9.7 kmh SSE 11.0 mph17.7 kmh 30.02 in1016.6 mb 0.00 in0.0 mm 0.00 in0.0 mm 0.00 in0.0 mm
05:00 PM 76.6°F24.8°C 73.8°F23.2°C 91% 5.0 mph SSE8.0 kmh SSE 10.0 mph16.1 kmh 30.02 in1016.6 mb 0.00 in0.0 mm 0.00 in0.0 mm 0.00 in0.0 mm
05:05 PM 76.3°F24.6°C 73.8°F23.2°C 92% 5.0 mph SSE8.0 kmh SSE 9.0 mph14.5 kmh 30.02 in1016.6 mb 0.01 in0.3 mm 0.12 in3.0 mm 0.01 in0.3 mm
05:10 PM 76.1°F24.5°C 73.9°F23.3°C 93% 6.0 mph SE9.7 kmh SE 11.0 mph17.7 kmh 30.02 in1016.6 mb 0.03 in0.8 mm 0.24 in6.1 mm 0.03 in0.8 mm
05:15 PM 75.8°F24.3°C 73.6°F23.1°C 93% 6.0 mph SE9.7 kmh SE 11.0 mph17.7 kmh 30.02 in1016.6 mb 0.03 in0.8 mm 0.00 in0.0 mm 0.03 in0.8 mm
05:20 PM 75.7°F24.3°C 73.5°F23.1°C 93% 5.0 mph SSE8.0 kmh SSE 10.0 mph16.1 kmh 30.02 in1016.6 mb 0.03 in0.8 mm 0.00 in0.0 mm 0.03 in0.8 mm
05:25 PM 75.6°F24.2°C 73.8°F23.2°C 94% 4.0 mph SSE6.4 kmh SSE 8.0 mph12.9 kmh 30.02 in1016.6 mb 0.03 in0.8 mm 0.00 in0.0 mm 0.03 in0.8 mm
05:30 PM 75.5°F24.2°C 73.7°F23.2°C 94% 4.0 mph SE6.4 kmh SE 10.0 mph16.1 kmh 30.02 in1016.6 mb 0.03 in0.8 mm 0.00 in0.0 mm 0.03 in0.8 mm
05:35 PM 75.4°F24.1°C 73.2°F22.9°C 93% 4.0 mph SE6.4 kmh SE 12.0 mph19.3 kmh 30.02 in1016.6 mb 0.03 in0.8 mm 0.00 in0.0 mm 0.03 in0.8 mm
05:40 PM 75.2°F24.0°C 73.0°F22.8°C 93% 5.0 mph SE8.0 kmh SE 12.0 mph19.3 kmh 30.02 in1016.6 mb 0.03 in0.8 mm 0.00 in0.0 mm 0.03 in0.8 mm
05:45 PM 75.0°F23.9°C 72.8°F22.7°C 93% 6.0 mph SE9.7 kmh SE 12.0 mph19.3 kmh 30.01 in1016.3 mb 0.03 in0.8 mm 0.00 in0.0 mm 0.03 in0.8 mm
05:50 PM 74.9°F23.8°C 72.7°F22.6°C 93% 6.0 mph SE9.7 kmh SE 14.0 mph22.5 kmh 30.00 in1015.9 mb 0.03 in0.8 mm 0.00 in0.0 mm 0.03 in0.8 mm
05:55 PM 74.8°F23.8°C 73.0°F22.8°C 94% 6.0 mph SE9.7 kmh SE 14.0 mph22.5 kmh 30.00 in1015.9 mb 0.03 in0.8 mm 0.00 in0.0 mm 0.03 in0.8 mm
06:00 PM 74.6°F23.7°C 72.8°F22.7°C 94% 5.0 mph SE8.0 kmh SE 10.0 mph16.1 kmh 30.00 in1015.9 mb 0.02 in0.5 mm 0.00 in0.0 mm 0.03 in0.8 mm
06:05 PM 74.5°F23.6°C 72.7°F22.6°C 94% 5.0 mph SE8.0 kmh SE 10.0 mph16.1 kmh 30.01 in1016.3 mb 0.02 in0.5 mm 0.00 in0.0 mm 0.03 in0.8 mm
06:10 PM 74.5°F23.6°C 72.7°F22.6°C 94% 4.0 mph SE6.4 kmh SE 10.0 mph16.1 kmh 30.01 in1016.3 mb 0.00 in0.0 mm 0.00 in0.0 mm 0.03 in0.8 mm
06:15 PM 74.4°F23.6°C 72.6°F22.6°C 94% 4.0 mph SE6.4 kmh SE 10.0 mph16.1 kmh 30.00 in1015.9 mb 0.00 in0.0 mm 0.00 in0.0 mm 0.03 in0.8 mm
06:20 PM 74.4°F23.6°C 72.9°F22.7°C 95% 3.0 mph SE4.8 kmh SE 7.0 mph11.3 kmh 30.00 in1015.9 mb 0.00 in0.0 mm 0.00 in0.0 mm 0.03 in0.8 mm
06:25 PM 74.4°F23.6°C 72.9°F22.7°C 95% 3.0 mph SE4.8 kmh SE 7.0 mph11.3 kmh 30.00 in1015.9 mb 0.00 in0.0 mm 0.00 in0.0 mm 0.03 in0.8 mm
06:30 PM 74.4°F23.6°C 72.9°F22.7°C 95% 3.0 mph SE4.8 kmh SE 8.0 mph12.9 kmh 30.00 in1015.9 mb 0.00 in0.0 mm 0.00 in0.0 mm 0.03 in0.8 mm
06:35 PM 74.4°F23.6°C 72.9°F22.7°C 95% 3.0 mph SE4.8 kmh SE 8.0 mph12.9 kmh 30.00 in1015.9 mb 0.00 in0.0 mm 0.00 in0.0 mm 0.03 in0.8 mm
06:40 PM 74.5°F23.6°C 73.0°F22.8°C 95% 3.0 mph SE4.8 kmh SE 7.0 mph11.3 kmh 30.00 in1015.9 mb 0.00 in0.0 mm 0.00 in0.0 mm 0.03 in0.8 mm
06:45 PM 74.5°F23.6°C 73.0°F22.8°C 95% 3.0 mph SE4.8 kmh SE 7.0 mph11.3 kmh 29.99 in1015.6 mb 0.00 in0.0 mm 0.00 in0.0 mm 0.03 in0.8 mm
06:50 PM 74.5°F23.6°C 73.0°F22.8°C 95% 3.0 mph SSE4.8 kmh SSE 6.0 mph9.7 kmh 29.98 in1015.2 mb 0.00 in0.0 mm 0.00 in0.0 mm 0.03 in0.8 mm
06:55 PM 74.5°F23.6°C 73.0°F22.8°C 95% 4.0 mph SSE6.4 kmh SSE 8.0 mph12.9 kmh 29.98 in1015.2 mb 0.00 in0.0 mm 0.00 in0.0 mm 0.03 in0.8 mm
07:00 PM 74.6°F23.7°C 73.1°F22.8°C 95% 4.0 mph SSE6.4 kmh SSE 8.0 mph12.9 kmh 29.98 in1015.2 mb 0.00 in0.0 mm 0.00 in0.0 mm 0.03 in0.8 mm
07:05 PM 74.6°F23.7°C 73.1°F22.8°C 95% 4.0 mph S6.4 kmh S 8.0 mph12.9 kmh 29.98 in1015.2 mb 0.00 in0.0 mm 0.00 in0.0 mm 0.03 in0.8 mm
07:10 PM 74.6°F23.7°C 73.1°F22.8°C 95% 4.0 mph SSE6.4 kmh SSE 8.0 mph12.9 kmh 29.98 in1015.2 mb 0.00 in0.0 mm 0.00 in0.0 mm 0.03 in0.8 mm
07:15 PM 74.6°F23.7°C 73.1°F22.8°C 95% 3.0 mph SSE4.8 kmh SSE 7.0 mph11.3 kmh 29.98 in1015.2 mb 0.00 in0.0 mm 0.00 in0.0 mm 0.03 in0.8 mm
07:20 PM 74.6°F23.7°C 73.1°F22.8°C 95% 2.0 mph SSE3.2 kmh SSE 6.0 mph9.7 kmh 29.98 in1015.2 mb 0.00 in0.0 mm 0.00 in0.0 mm 0.03 in0.8 mm
07:25 PM 74.7°F23.7°C 73.2°F22.9°C 95% 2.0 mph S3.2 kmh S 6.0 mph9.7 kmh 29.98 in1015.2 mb 0.00 in0.0 mm 0.00 in0.0 mm 0.03 in0.8 mm
07:30 PM 74.7°F23.7°C 73.2°F22.9°C 95% 2.0 mph S3.2 kmh S 5.0 mph8.0 kmh 29.98 in1015.2 mb 0.00 in0.0 mm 0.00 in0.0 mm 0.03 in0.8 mm
07:35 PM 74.6°F23.7°C 73.1°F22.8°C 95% 3.0 mph SE4.8 kmh SE 7.0 mph11.3 kmh 29.98 in1015.2 mb 0.00 in0.0 mm 0.00 in0.0 mm 0.03 in0.8 mm
07:40 PM 74.6°F23.7°C 73.1°F22.8°C 95% 3.0 mph SE4.8 kmh SE 7.0 mph11.3 kmh 29.98 in1015.2 mb 0.00 in0.0 mm 0.00 in0.0 mm 0.03 in0.8 mm
07:45 PM 74.7°F23.7°C 73.2°F22.9°C 95% 3.0 mph SE4.8 kmh SE 6.0 mph9.7 kmh 29.99 in1015.6 mb 0.00 in0.0 mm 0.00 in0.0 mm 0.03 in0.8 mm
07:50 PM 74.6°F23.7°C 73.1°F22.8°C 95% 3.0 mph SE4.8 kmh SE 6.0 mph9.7 kmh 29.99 in1015.6 mb 0.00 in0.0 mm 0.00 in0.0 mm 0.03 in0.8 mm
07:55 PM 74.6°F23.7°C 73.1°F22.8°C 95% 2.0 mph SE3.2 kmh SE 5.0 mph8.0 kmh 30.00 in1015.9 mb 0.00 in0.0 mm 0.00 in0.0 mm 0.03 in0.8 mm
08:00 PM 74.7°F23.7°C 73.2°F22.9°C 95% 2.0 mph SE3.2 kmh SE 3.0 mph4.8 kmh 30.00 in1015.9 mb 0.00 in0.0 mm 0.00 in0.0 mm 0.03 in0.8 mm
08:05 PM 74.7°F23.7°C 73.5°F23.1°C 96% 2.0 mph SE3.2 kmh SE 3.0 mph4.8 kmh 30.00 in1015.9 mb 0.00 in0.0 mm 0.00 in0.0 mm 0.03 in0.8 mm
08:10 PM 74.7°F23.7°C 73.5°F23.1°C 96% 1.0 mph SE1.6 kmh SE 4.0 mph6.4 kmh 30.00 in1015.9 mb 0.00 in0.0 mm 0.00 in0.0 mm 0.03 in0.8 mm
08:15 PM 74.7°F23.7°C 73.5°F23.1°C 96% 2.0 mph SE3.2 kmh SE 4.0 mph6.4 kmh 30.00 in1015.9 mb 0.00 in0.0 mm 0.00 in0.0 mm 0.03 in0.8 mm
08:20 PM 74.8°F23.8°C 73.6°F23.1°C 96% 3.0 mph SE4.8 kmh SE 7.0 mph11.3 kmh 30.00 in1015.9 mb 0.00 in0.0 mm 0.00 in0.0 mm 0.03 in0.8 mm
08:25 PM 74.8°F23.8°C 73.6°F23.1°C 96% 3.0 mph SE4.8 kmh SE 7.0 mph11.3 kmh 30.00 in1015.9 mb 0.00 in0.0 mm 0.00 in0.0 mm 0.03 in0.8 mm
08:30 PM 74.6°F23.7°C 73.1°F22.8°C 95% 2.0 mph SE3.2 kmh SE 5.0 mph8.0 kmh 30.00 in1015.9 mb 0.00 in0.0 mm 0.00 in0.0 mm 0.03 in0.8 mm
08:35 PM 74.6°F23.7°C 73.1°F22.8°C 95% 2.0 mph SE3.2 kmh SE 4.0 mph6.4 kmh 30.00 in1015.9 mb 0.00 in0.0 mm 0.00 in0.0 mm 0.03 in0.8 mm
08:40 PM 74.6°F23.7°C 73.1°F22.8°C 95% 2.0 mph SE3.2 kmh SE 6.0 mph9.7 kmh 30.00 in1015.9 mb 0.00 in0.0 mm 0.00 in0.0 mm 0.03 in0.8 mm
08:45 PM 74.6°F23.7°C 73.4°F23.0°C 96% 2.0 mph SE3.2 kmh SE 6.0 mph9.7 kmh 30.01 in1016.3 mb 0.00 in0.0 mm 0.00 in0.0 mm 0.03 in0.8 mm
08:50 PM 74.5°F23.6°C 73.3°F22.9°C 96% 2.0 mph ESE3.2 kmh ESE 4.0 mph6.4 kmh 30.01 in1016.3 mb 0.00 in0.0 mm 0.00 in0.0 mm 0.03 in0.8 mm
08:55 PM 74.6°F23.7°C 73.4°F23.0°C 96% 3.0 mph ESE4.8 kmh ESE 7.0 mph11.3 kmh 30.02 in1016.6 mb 0.00 in0.0 mm 0.00 in0.0 mm 0.03 in0.8 mm
09:00 PM 74.6°F23.7°C 73.4°F23.0°C 96% 4.0 mph SE6.4 kmh SE 8.0 mph12.9 kmh 30.02 in1016.6 mb 0.00 in0.0 mm 0.00 in0.0 mm 0.03 in0.8 mm
09:05 PM 74.6°F23.7°C 73.4°F23.0°C 96% 4.0 mph SE6.4 kmh SE 8.0 mph12.9 kmh 30.02 in1016.6 mb 0.00 in0.0 mm 0.00 in0.0 mm 0.03 in0.8 mm
09:10 PM 74.6°F23.7°C 73.4°F23.0°C 96% 5.0 mph SSE8.0 kmh SSE 10.0 mph16.1 kmh 30.02 in1016.6 mb 0.00 in0.0 mm 0.00 in0.0 mm 0.03 in0.8 mm
09:15 PM 74.6°F23.7°C 73.4°F23.0°C 96% 5.0 mph SSE8.0 kmh SSE 10.0 mph16.1 kmh 30.02 in1016.6 mb 0.00 in0.0 mm 0.00 in0.0 mm 0.03 in0.8 mm
09:20 PM 74.6°F23.7°C 73.4°F23.0°C 96% 5.0 mph SSE8.0 kmh SSE 8.0 mph12.9 kmh 30.03 in1016.9 mb 0.00 in0.0 mm 0.00 in0.0 mm 0.03 in0.8 mm
09:25 PM 74.6°F23.7°C 73.4°F23.0°C 96% 5.0 mph SSE8.0 kmh SSE 9.0 mph14.5 kmh 30.03 in1016.9 mb 0.00 in0.0 mm 0.00 in0.0 mm 0.03 in0.8 mm
09:30 PM 74.6°F23.7°C 73.4°F23.0°C 96% 5.0 mph SSE8.0 kmh SSE 11.0 mph17.7 kmh 30.03 in1016.9 mb 0.00 in0.0 mm 0.00 in0.0 mm 0.03 in0.8 mm
09:35 PM 74.6°F23.7°C 73.4°F23.0°C 96% 5.0 mph SSE8.0 kmh SSE 11.0 mph17.7 kmh 30.03 in1016.9 mb 0.00 in0.0 mm 0.00 in0.0 mm 0.03 in0.8 mm
09:40 PM 74.6°F23.7°C 73.4°F23.0°C 96% 4.0 mph SSE6.4 kmh SSE 7.0 mph11.3 kmh 30.03 in1016.9 mb 0.00 in0.0 mm 0.00 in0.0 mm 0.03 in0.8 mm
09:45 PM 74.6°F23.7°C 73.4°F23.0°C 96% 4.0 mph SSE6.4 kmh SSE 8.0 mph12.9 kmh 30.03 in1016.9 mb 0.00 in0.0 mm 0.00 in0.0 mm 0.03 in0.8 mm
09:50 PM 74.7°F23.7°C 73.5°F23.1°C 96% 4.0 mph SSE6.4 kmh SSE 9.0 mph14.5 kmh 30.03 in1016.9 mb 0.00 in0.0 mm 0.00 in0.0 mm 0.03 in0.8 mm
09:55 PM 74.6°F23.7°C 73.1°F22.8°C 95% 4.0 mph SSE6.4 kmh SSE 9.0 mph14.5 kmh 30.03 in1016.9 mb 0.00 in0.0 mm 0.00 in0.0 mm 0.03 in0.8 mm
10:00 PM 74.6°F23.7°C 73.4°F23.0°C 96% 3.0 mph S4.8 kmh S 6.0 mph9.7 kmh 30.03 in1016.9 mb 0.00 in0.0 mm 0.00 in0.0 mm 0.03 in0.8 mm
10:05 PM 74.6°F23.7°C 73.4°F23.0°C 96% 3.0 mph SSE4.8 kmh SSE 7.0 mph11.3 kmh 30.03 in1016.9 mb 0.00 in0.0 mm 0.00 in0.0 mm 0.03 in0.8 mm
10:10 PM 74.6°F23.7°C 73.4°F23.0°C 96% 3.0 mph SSE4.8 kmh SSE 7.0 mph11.3 kmh 30.03 in1016.9 mb 0.00 in0.0 mm 0.00 in0.0 mm 0.03 in0.8 mm
10:15 PM 74.6°F23.7°C 73.4°F23.0°C 96% 3.0 mph SSE4.8 kmh SSE 7.0 mph11.3 kmh 30.03 in1016.9 mb 0.00 in0.0 mm 0.00 in0.0 mm 0.03 in0.8 mm
10:20 PM 74.5°F23.6°C 73.3°F22.9°C 96% 4.0 mph SSE6.4 kmh SSE 7.0 mph11.3 kmh 30.03 in1016.9 mb 0.00 in0.0 mm 0.00 in0.0 mm 0.03 in0.8 mm
10:25 PM 74.6°F23.7°C 73.4°F23.0°C 96% 3.0 mph SSE4.8 kmh SSE 7.0 mph11.3 kmh 30.03 in1016.9 mb 0.00 in0.0 mm 0.00 in0.0 mm 0.03 in0.8 mm
10:30 PM 74.6°F23.7°C 73.4°F23.0°C 96% 3.0 mph SSE4.8 kmh SSE 7.0 mph11.3 kmh 30.03 in1016.9 mb 0.00 in0.0 mm 0.00 in0.0 mm 0.03 in0.8 mm
10:35 PM 74.6°F23.7°C 73.4°F23.0°C 96% 3.0 mph SE4.8 kmh SE 7.0 mph11.3 kmh 30.03 in1016.9 mb 0.00 in0.0 mm 0.00 in0.0 mm 0.03 in0.8 mm
10:40 PM 74.7°F23.7°C 73.5°F23.1°C 96% 2.0 mph SE3.2 kmh SE 4.0 mph6.4 kmh 30.03 in1016.9 mb 0.00 in0.0 mm 0.00 in0.0 mm 0.03 in0.8 mm
10:45 PM 74.8°F23.8°C 73.6°F23.1°C 96% 2.0 mph SE3.2 kmh SE 5.0 mph8.0 kmh 30.03 in1016.9 mb 0.00 in0.0 mm 0.00 in0.0 mm 0.03 in0.8 mm
10:50 PM 74.8°F23.8°C 73.6°F23.1°C 96% 3.0 mph SSE4.8 kmh SSE 5.0 mph8.0 kmh 30.03 in1016.9 mb 0.00 in0.0 mm 0.00 in0.0 mm 0.03 in0.8 mm
10:55 PM 74.8°F23.8°C 73.6°F23.1°C 96% 3.0 mph SSE4.8 kmh SSE 5.0 mph8.0 kmh 30.04 in1017.3 mb 0.00 in0.0 mm 0.00 in0.0 mm 0.03 in0.8 mm
11:00 PM 74.8°F23.8°C 73.6°F23.1°C 96% 2.0 mph SE3.2 kmh SE 5.0 mph8.0 kmh 30.03 in1016.9 mb 0.00 in0.0 mm 0.00 in0.0 mm 0.03 in0.8 mm
11:05 PM 74.9°F23.8°C 73.7°F23.2°C 96% 2.0 mph SSE3.2 kmh SSE 6.0 mph9.7 kmh 30.03 in1016.9 mb 0.00 in0.0 mm 0.00 in0.0 mm 0.03 in0.8 mm
11:10 PM 74.9°F23.8°C 73.7°F23.2°C 96% 3.0 mph SSE4.8 kmh SSE 6.0 mph9.7 kmh 30.04 in1017.3 mb 0.00 in0.0 mm 0.00 in0.0 mm 0.03 in0.8 mm
11:15 PM 74.8°F23.8°C 73.6°F23.1°C 96% 3.0 mph SSE4.8 kmh SSE 5.0 mph8.0 kmh 30.03 in1016.9 mb 0.00 in0.0 mm 0.00 in0.0 mm 0.03 in0.8 mm
11:20 PM 74.9°F23.8°C 73.7°F23.2°C 96% 3.0 mph SSE4.8 kmh SSE 6.0 mph9.7 kmh 30.03 in1016.9 mb 0.00 in0.0 mm 0.00 in0.0 mm 0.03 in0.8 mm
11:25 PM 74.9°F23.8°C 73.7°F23.2°C 96% 3.0 mph S4.8 kmh S 6.0 mph9.7 kmh 30.03 in1016.9 mb 0.00 in0.0 mm 0.00 in0.0 mm 0.03 in0.8 mm
11:30 PM 74.9°F23.8°C 73.7°F23.2°C 96% 2.0 mph S3.2 kmh S 5.0 mph8.0 kmh 30.03 in1016.9 mb 0.00 in0.0 mm 0.00 in0.0 mm 0.03 in0.8 mm
11:35 PM 74.9°F23.8°C 73.7°F23.2°C 96% 3.0 mph S4.8 kmh S 6.0 mph9.7 kmh 30.03 in1016.9 mb 0.00 in0.0 mm 0.00 in0.0 mm 0.03 in0.8 mm
11:40 PM 74.9°F23.8°C 73.7°F23.2°C 96% 3.0 mph S4.8 kmh S 6.0 mph9.7 kmh 30.03 in1016.9 mb 0.00 in0.0 mm 0.00 in0.0 mm 0.03 in0.8 mm
11:45 PM 74.9°F23.8°C 73.7°F23.2°C 96% 2.0 mph S3.2 kmh S 5.0 mph8.0 kmh 30.03 in1016.9 mb 0.00 in0.0 mm 0.00 in0.0 mm 0.03 in0.8 mm
11:50 PM 74.9°F23.8°C 73.7°F23.2°C 96% 2.0 mph S3.2 kmh S 5.0 mph8.0 kmh 30.03 in1016.9 mb 0.00 in0.0 mm 0.00 in0.0 mm 0.03 in0.8 mm
11:55 PM 74.9°F23.8°C 73.7°F23.2°C 96% 3.0 mph SSE4.8 kmh SSE 7.0 mph11.3 kmh 30.03 in1016.9 mb 0.00 in0.0 mm 0.00 in0.0 mm 0.03 in0.8 mm